This is the latest recevied weather packets stored in our database for station/object K3RTA-2. If no packets are shown the sender has not sent any weather packets the latest 10 day(s).
| Time | Temp. | Humidity | Pressure | Rain* | Wind** | Luminosity | Snow |
|---|---|---|---|---|---|---|---|
| 1777963804 | 16.11° C | 83% | 1012.2 hPa | 0 mm | - | - | - |
| 1777962904 | 16.11° C | 83% | 1012.2 hPa | 0 mm | - | - | - |
| 1777961705 | 16.11° C | 83% | 1012 hPa | 0 mm | - | - | - |
| 1777961405 | 16.11° C | 83% | 1012.2 hPa | 0 mm | - | - | - |
| 1777959304 | 16.11° C | 82% | 1012.2 hPa | 0 mm | - | - | - |
| 1777956604 | 16.67° C | 81% | 1012.3 hPa | 0 mm | - | - | - |
| 1777954505 | 16.67° C | 80% | 1012.4 hPa | 0 mm | - | - | - |
| 1777954206 | 16.67° C | 80% | 1012.5 hPa | 0 mm | - | - | - |
| 1777951204 | 16.11° C | 81% | 1012.2 hPa | 0 mm | - | - | - |
| 1777948204 | 16.11° C | 79% | 1012.3 hPa | 0 mm | - | - | - |
| 1777947906 | 16.11° C | 79% | 1012.4 hPa | 0 mm | - | - | - |
| 1777944904 | 16.67° C | 74% | 1012.3 hPa | 0 mm | - | - | - |
| 1777944604 | 16.67° C | 74% | 1012.3 hPa | 0 mm | - | - | - |
| 1777941904 | 17.22° C | 68% | 1012.1 hPa | 0 mm | - | - | - |
| 1777941603 | 17.78° C | 67% | 1012.1 hPa | 0 mm | - | - | - |
| 1777941304 | 17.78° C | 66% | 1012 hPa | 0 mm | - | - | - |
| 1777941004 | 17.78° C | 65% | 1012 hPa | 0 mm | - | - | - |
| 1777936804 | 20.56° C | 60% | 1011.4 hPa | 0 mm | - | - | - |
| 1777935904 | 21.11° C | 58% | 1011.5 hPa | 0 mm | - | - | - |
| 1777934104 | 22.22° C | 40% | 1011.4 hPa | 0 mm | - | - | - |
| 1777931104 | 23.89° C | 37% | 1011.6 hPa | 0 mm | - | - | - |
| 1777930205 | 23.89° C | 37% | 1011.6 hPa | 0 mm | - | - | - |
| 1777929304 | 23.89° C | 37% | 1011.6 hPa | 0 mm | - | - | - |
| 1777929004 | 23.89° C | 37% | 1011.4 hPa | 0 mm | - | - | - |
| 1777928704 | 23.89° C | 36% | 1011.5 hPa | 0 mm | - | - | - |
* Rain latest hour (hover to see other rain measurements)
** Current wind speed in m/s (hover to see current wind gust speed)